sensor_id;sensor_type;location;lat;lon;timestamp;pressure;altitude;pressure_sealevel;temperature;humidity
77723;BME280;67811;42.656;23.394;2023-05-02T00:02:21;95389.03;;;10.54;68.05
77723;BME280;67811;42.656;23.394;2023-05-02T00:04:46;95388.09;;;10.47;68.52
77723;BME280;67811;42.656;23.394;2023-05-02T00:07:12;95393.28;;;10.41;68.52
77723;BME280;67811;42.656;23.394;2023-05-02T00:09:37;95399.09;;;10.36;68.97
77723;BME280;67811;42.656;23.394;2023-05-02T00:12:03;95385.91;;;10.28;69.46
77723;BME280;67811;42.656;23.394;2023-05-02T00:14:28;95393.56;;;10.15;69.44
77723;BME280;67811;42.656;23.394;2023-05-02T00:16:53;95395.28;;;9.99;70.20
77723;BME280;67811;42.656;23.394;2023-05-02T00:19:18;95392.09;;;9.81;71.02
77723;BME280;67811;42.656;23.394;2023-05-02T00:21:46;95399.38;;;9.79;71.10
77723;BME280;67811;42.656;23.394;2023-05-02T00:24:12;95393.97;;;9.72;71.83
77723;BME280;67811;42.656;23.394;2023-05-02T00:26:37;95402.91;;;9.63;71.80
77723;BME280;67811;42.656;23.394;2023-05-02T00:29:02;95400.53;;;9.76;71.38
77723;BME280;67811;42.656;23.394;2023-05-02T00:31:27;95394.09;;;9.79;71.63
77723;BME280;67811;42.656;23.394;2023-05-02T00:33:53;95403.38;;;9.75;71.64
77723;BME280;67811;42.656;23.394;2023-05-02T00:36:18;95407.53;;;9.69;71.93
77723;BME280;67811;42.656;23.394;2023-05-02T00:38:44;95405.63;;;9.86;71.59
77723;BME280;67811;42.656;23.394;2023-05-02T00:41:10;95404.94;;;9.92;71.42
77723;BME280;67811;42.656;23.394;2023-05-02T00:43:35;95399.94;;;9.97;71.08
77723;BME280;67811;42.656;23.394;2023-05-02T00:46:01;95405.06;;;9.99;71.12
77723;BME280;67811;42.656;23.394;2023-05-02T00:48:27;95416.63;;;10.06;71.16
77723;BME280;67811;42.656;23.394;2023-05-02T00:50:52;95421.06;;;10.14;70.81
77723;BME280;67811;42.656;23.394;2023-05-02T00:53:17;95422.34;;;10.26;70.47
77723;BME280;67811;42.656;23.394;2023-05-02T00:55:43;95423.13;;;10.58;69.80
77723;BME280;67811;42.656;23.394;2023-05-02T00:58:13;95415.84;;;10.82;69.00
77723;BME280;67811;42.656;23.394;2023-05-02T01:03:45;95416.28;;;10.86;68.47
77723;BME280;67811;42.656;23.394;2023-05-02T01:06:38;95408.63;;;10.91;68.07
77723;BME280;67811;42.656;23.394;2023-05-02T01:11:59;95402.69;;;10.89;68.52
77723;BME280;67811;42.656;23.394;2023-05-02T01:14:28;95401.97;;;10.95;68.38
77723;BME280;67811;42.656;23.394;2023-05-02T01:16:55;95408.56;;;10.99;68.10
77723;BME280;67811;42.656;23.394;2023-05-02T01:19:32;95408.84;;;11.04;68.22
77723;BME280;67811;42.656;23.394;2023-05-02T01:22:02;95407.66;;;11.07;68.15
77723;BME280;67811;42.656;23.394;2023-05-02T01:24:33;95407.03;;;11.05;68.28
77723;BME280;67811;42.656;23.394;2023-05-02T01:27:27;95410.13;;;11.08;68.20
77723;BME280;67811;42.656;23.394;2023-05-02T01:29:55;95403.06;;;11.01;68.12
77723;BME280;67811;42.656;23.394;2023-05-02T01:32:22;95404.63;;;10.95;68.29
77723;BME280;67811;42.656;23.394;2023-05-02T01:34:48;95407.09;;;10.97;68.41
77723;BME280;67811;42.656;23.394;2023-05-02T01:37:16;95402.44;;;10.99;68.67
77723;BME280;67811;42.656;23.394;2023-05-02T01:39:42;95412.88;;;11.00;68.60
77723;BME280;67811;42.656;23.394;2023-05-02T01:42:10;95414.50;;;11.01;68.45
77723;BME280;67811;42.656;23.394;2023-05-02T01:44:36;95415.50;;;11.00;68.87
77723;BME280;67811;42.656;23.394;2023-05-02T01:47:04;95414.84;;;10.98;68.91
77723;BME280;67811;42.656;23.394;2023-05-02T01:49:32;95414.50;;;11.01;68.97
77723;BME280;67811;42.656;23.394;2023-05-02T01:52:01;95424.47;;;10.99;68.85
77723;BME280;67811;42.656;23.394;2023-05-02T01:54:27;95415.22;;;10.95;69.11
77723;BME280;67811;42.656;23.394;2023-05-02T01:56:54;95429.50;;;10.94;69.18
77723;BME280;67811;42.656;23.394;2023-05-02T01:59:22;95426.19;;;10.92;69.22
77723;BME280;67811;42.656;23.394;2023-05-02T02:01:50;95422.41;;;10.87;69.47
77723;BME280;67811;42.656;23.394;2023-05-02T02:04:16;95425.16;;;10.93;69.26
77723;BME280;67811;42.656;23.394;2023-05-02T02:06:46;95420.19;;;10.75;69.82
77723;BME280;67811;42.656;23.394;2023-05-02T02:09:12;95414.47;;;10.87;69.48
77723;BME280;67811;42.656;23.394;2023-05-02T02:11:51;95412.50;;;11.03;68.94
77723;BME280;67811;42.656;23.394;2023-05-02T02:14:20;95404.66;;;11.10;68.15
77723;BME280;67811;42.656;23.394;2023-05-02T02:16:46;95404.75;;;11.17;68.07
77723;BME280;67811;42.656;23.394;2023-05-02T02:19:13;95408.22;;;11.17;68.31
77723;BME280;67811;42.656;23.394;2023-05-02T02:21:40;95418.03;;;11.17;68.11
77723;BME280;67811;42.656;23.394;2023-05-02T02:24:06;95417.25;;;11.08;68.50
77723;BME280;67811;42.656;23.394;2023-05-02T02:26:33;95409.69;;;11.05;68.31
77723;BME280;67811;42.656;23.394;2023-05-02T02:28:59;95407.13;;;11.12;68.17
77723;BME280;67811;42.656;23.394;2023-05-02T02:31:30;95413.59;;;11.09;68.39
77723;BME280;67811;42.656;23.394;2023-05-02T02:33:55;95407.84;;;11.05;68.27
77723;BME280;67811;42.656;23.394;2023-05-02T02:36:25;95416.44;;;11.07;68.34
77723;BME280;67811;42.656;23.394;2023-05-02T02:41:44;95417.94;;;10.87;69.32
77723;BME280;67811;42.656;23.394;2023-05-02T02:44:30;95403.22;;;10.85;68.81
77723;BME280;67811;42.656;23.394;2023-05-02T02:47:09;95406.69;;;10.85;68.84
77723;BME280;67811;42.656;23.394;2023-05-02T02:53:02;95410.78;;;10.73;69.52
77723;BME280;67811;42.656;23.394;2023-05-02T02:55:54;95408.69;;;10.60;69.96
77723;BME280;67811;42.656;23.394;2023-05-02T03:00:50;95414.84;;;10.61;70.13
77723;BME280;67811;42.656;23.394;2023-05-02T03:03:16;95417.75;;;10.66;69.87
77723;BME280;67811;42.656;23.394;2023-05-02T03:05:42;95421.13;;;10.60;70.13
77723;BME280;67811;42.656;23.394;2023-05-02T03:08:08;95424.78;;;10.59;70.28
77723;BME280;67811;42.656;23.394;2023-05-02T03:10:33;95432.50;;;10.68;69.96
77723;BME280;67811;42.656;23.394;2023-05-02T03:12:59;95426.56;;;10.66;69.97
77723;BME280;67811;42.656;23.394;2023-05-02T03:15:37;95431.69;;;10.68;70.01
77723;BME280;67811;42.656;23.394;2023-05-02T03:18:07;95432.31;;;10.70;69.71
77723;BME280;67811;42.656;23.394;2023-05-02T03:20:32;95432.31;;;10.70;69.82
77723;BME280;67811;42.656;23.394;2023-05-02T03:22:57;95437.56;;;10.78;69.47
77723;BME280;67811;42.656;23.394;2023-05-02T03:25:23;95435.84;;;10.85;69.29
77723;BME280;67811;42.656;23.394;2023-05-02T03:27:48;95440.16;;;10.86;69.19
77723;BME280;67811;42.656;23.394;2023-05-02T03:30:13;95446.69;;;10.75;69.78
77723;BME280;67811;42.656;23.394;2023-05-02T03:32:39;95445.44;;;10.86;69.11
77723;BME280;67811;42.656;23.394;2023-05-02T03:35:04;95452.34;;;10.95;68.74
77723;BME280;67811;42.656;23.394;2023-05-02T03:37:29;95446.81;;;11.05;68.27
77723;BME280;67811;42.656;23.394;2023-05-02T03:39:55;95446.31;;;11.01;68.05
77723;BME280;67811;42.656;23.394;2023-05-02T03:42:20;95448.06;;;10.94;68.91
77723;BME280;67811;42.656;23.394;2023-05-02T03:44:45;95450.75;;;10.86;69.32
77723;BME280;67811;42.656;23.394;2023-05-02T03:47:11;95450.44;;;10.81;69.08
77723;BME280;67811;42.656;23.394;2023-05-02T03:49:36;95454.06;;;10.88;68.91
77723;BME280;67811;42.656;23.394;2023-05-02T03:52:01;95454.88;;;10.89;68.89
77723;BME280;67811;42.656;23.394;2023-05-02T03:54:31;95456.88;;;10.87;68.91
77723;BME280;67811;42.656;23.394;2023-05-02T03:56:57;95456.00;;;10.94;68.52
77723;BME280;67811;42.656;23.394;2023-05-02T03:59:22;95452.44;;;11.02;68.55
77723;BME280;67811;42.656;23.394;2023-05-02T04:01:48;95454.78;;;11.20;67.66
77723;BME280;67811;42.656;23.394;2023-05-02T04:04:13;95453.72;;;11.29;67.15
77723;BME280;67811;42.656;23.394;2023-05-02T04:06:38;95455.94;;;11.40;66.76
77723;BME280;67811;42.656;23.394;2023-05-02T04:09:04;95455.00;;;11.33;66.69
77723;BME280;67811;42.656;23.394;2023-05-02T04:11:29;95451.53;;;11.32;66.75
77723;BME280;67811;42.656;23.394;2023-05-02T04:13:54;95456.66;;;11.34;66.04
77723;BME280;67811;42.656;23.394;2023-05-02T04:16:19;95452.75;;;11.45;65.88
77723;BME280;67811;42.656;23.394;2023-05-02T04:18:45;95455.19;;;11.46;65.11
77723;BME280;67811;42.656;23.394;2023-05-02T04:21:10;95448.91;;;11.62;64.95
77723;BME280;67811;42.656;23.394;2023-05-02T04:23:35;95462.34;;;11.75;65.02
77723;BME280;67811;42.656;23.394;2023-05-02T04:26:00;95462.09;;;11.70;64.55
77723;BME280;67811;42.656;23.394;2023-05-02T04:28:26;95457.78;;;11.69;65.11
77723;BME280;67811;42.656;23.394;2023-05-02T04:30:51;95460.97;;;11.65;64.78
77723;BME280;67811;42.656;23.394;2023-05-02T04:33:17;95457.63;;;11.71;64.00
77723;BME280;67811;42.656;23.394;2023-05-02T04:35:42;95444.88;;;11.81;63.82
77723;BME280;67811;42.656;23.394;2023-05-02T04:38:07;95453.97;;;11.86;62.94
77723;BME280;67811;42.656;23.394;2023-05-02T04:40:33;95468.97;;;11.79;63.33
77723;BME280;67811;42.656;23.394;2023-05-02T04:42:58;95460.38;;;11.92;62.91
77723;BME280;67811;42.656;23.394;2023-05-02T04:45:24;95472.56;;;12.01;62.43
77723;BME280;67811;42.656;23.394;2023-05-02T04:47:50;95462.59;;;11.89;62.45
77723;BME280;67811;42.656;23.394;2023-05-02T04:50:15;95465.53;;;11.94;61.61
77723;BME280;67811;42.656;23.394;2023-05-02T04:52:40;95458.09;;;12.04;61.27
77723;BME280;67811;42.656;23.394;2023-05-02T04:55:06;95476.22;;;12.15;61.16
77723;BME280;67811;42.656;23.394;2023-05-02T04:57:31;95463.22;;;11.91;62.07
77723;BME280;67811;42.656;23.394;2023-05-02T04:59:56;95465.59;;;12.00;61.30
77723;BME280;67811;42.656;23.394;2023-05-02T05:02:22;95462.22;;;12.06;61.25
77723;BME280;67811;42.656;23.394;2023-05-02T05:04:47;95468.41;;;12.28;60.42
77723;BME280;67811;42.656;23.394;2023-05-02T05:07:12;95473.25;;;12.25;59.69
77723;BME280;67811;42.656;23.394;2023-05-02T05:09:37;95478.22;;;12.28;60.05
77723;BME280;67811;42.656;23.394;2023-05-02T05:12:03;95480.81;;;12.06;60.25
77723;BME280;67811;42.656;23.394;2023-05-02T05:14:28;95472.00;;;12.06;58.91
77723;BME280;67811;42.656;23.394;2023-05-02T05:16:54;95471.81;;;12.22;59.49
77723;BME280;67811;42.656;23.394;2023-05-02T05:19:19;95466.97;;;12.26;59.17
77723;BME280;67811;42.656;23.394;2023-05-02T05:21:44;95465.69;;;12.07;59.79
77723;BME280;67811;42.656;23.394;2023-05-02T05:24:09;95453.28;;;12.29;59.80
77723;BME280;67811;42.656;23.394;2023-05-02T05:26:34;95466.84;;;12.34;58.95
77723;BME280;67811;42.656;23.394;2023-05-02T05:29:00;95468.63;;;12.12;58.40
77723;BME280;67811;42.656;23.394;2023-05-02T05:31:25;95470.25;;;12.28;58.62
77723;BME280;67811;42.656;23.394;2023-05-02T05:33:50;95475.91;;;12.39;58.12
77723;BME280;67811;42.656;23.394;2023-05-02T05:36:15;95472.34;;;12.32;58.27
77723;BME280;67811;42.656;23.394;2023-05-02T05:38:41;95476.63;;;12.48;57.47
77723;BME280;67811;42.656;23.394;2023-05-02T05:41:06;95472.63;;;12.37;58.02
77723;BME280;67811;42.656;23.394;2023-05-02T05:43:32;95477.13;;;12.37;57.90
77723;BME280;67811;42.656;23.394;2023-05-02T05:45:57;95489.59;;;12.22;57.56
77723;BME280;67811;42.656;23.394;2023-05-02T05:48:23;95476.84;;;12.32;58.07
77723;BME280;67811;42.656;23.394;2023-05-02T05:50:48;95475.19;;;12.67;57.85
77723;BME280;67811;42.656;23.394;2023-05-02T05:53:14;95478.41;;;12.62;57.51
77723;BME280;67811;42.656;23.394;2023-05-02T05:55:39;95478.00;;;12.44;56.79
77723;BME280;67811;42.656;23.394;2023-05-02T05:58:05;95477.72;;;12.54;57.54
77723;BME280;67811;42.656;23.394;2023-05-02T06:00:33;95485.75;;;12.60;57.94
77723;BME280;67811;42.656;23.394;2023-05-02T06:02:58;95491.47;;;12.79;57.57
77723;BME280;67811;42.656;23.394;2023-05-02T06:05:24;95495.16;;;12.78;57.09
77723;BME280;67811;42.656;23.394;2023-05-02T06:07:49;95494.88;;;13.09;57.14
77723;BME280;67811;42.656;23.394;2023-05-02T06:10:14;95492.88;;;13.17;55.74
77723;BME280;67811;42.656;23.394;2023-05-02T06:12:40;95499.41;;;13.30;55.63
77723;BME280;67811;42.656;23.394;2023-05-02T06:15:05;95489.13;;;13.83;53.52
77723;BME280;67811;42.656;23.394;2023-05-02T06:17:31;95480.78;;;14.27;50.81
77723;BME280;67811;42.656;23.394;2023-05-02T06:19:56;95488.88;;;14.06;52.21
77723;BME280;67811;42.656;23.394;2023-05-02T06:22:21;95489.91;;;13.77;53.04
77723;BME280;67811;42.656;23.394;2023-05-02T06:24:46;95484.47;;;13.85;52.99
77723;BME280;67811;42.656;23.394;2023-05-02T06:27:12;95485.56;;;13.97;52.39
77723;BME280;67811;42.656;23.394;2023-05-02T06:29:37;95480.94;;;14.12;52.40
77723;BME280;67811;42.656;23.394;2023-05-02T06:32:02;95477.84;;;14.09;53.23
77723;BME280;67811;42.656;23.394;2023-05-02T06:34:31;95479.59;;;14.30;50.69
77723;BME280;67811;42.656;23.394;2023-05-02T06:36:56;95475.47;;;14.82;49.46
77723;BME280;67811;42.656;23.394;2023-05-02T06:39:21;95474.28;;;14.84;48.82
77723;BME280;67811;42.656;23.394;2023-05-02T06:41:46;95468.53;;;14.94;48.97
77723;BME280;67811;42.656;23.394;2023-05-02T06:44:12;95478.88;;;15.50;47.53
77723;BME280;67811;42.656;23.394;2023-05-02T06:46:37;95473.72;;;15.42;47.58
77723;BME280;67811;42.656;23.394;2023-05-02T06:49:02;95473.31;;;15.25;47.38
77723;BME280;67811;42.656;23.394;2023-05-02T06:51:27;95460.56;;;15.47;45.35
77723;BME280;67811;42.656;23.394;2023-05-02T06:53:53;95457.06;;;15.93;44.11
77723;BME280;67811;42.656;23.394;2023-05-02T06:56:18;95476.19;;;15.96;44.72
77723;BME280;67811;42.656;23.394;2023-05-02T06:58:43;95470.44;;;15.60;46.34
77723;BME280;67811;42.656;23.394;2023-05-02T07:01:09;95470.22;;;15.54;46.81
77723;BME280;67811;42.656;23.394;2023-05-02T07:03:34;95464.06;;;16.00;45.53
77723;BME280;67811;42.656;23.394;2023-05-02T07:05:59;95458.72;;;16.52;44.30
77723;BME280;67811;42.656;23.394;2023-05-02T07:08:24;95454.81;;;15.90;43.62
77723;BME280;67811;42.656;23.394;2023-05-02T07:10:50;95466.75;;;15.41;44.91
77723;BME280;67811;42.656;23.394;2023-05-02T07:13:15;95468.19;;;15.57;44.88
77723;BME280;67811;42.656;23.394;2023-05-02T07:15:41;95466.09;;;15.92;44.37
77723;BME280;67811;42.656;23.394;2023-05-02T07:18:07;95471.44;;;16.05;43.88
77723;BME280;67811;42.656;23.394;2023-05-02T07:20:32;95460.94;;;16.17;43.88
77723;BME280;67811;42.656;23.394;2023-05-02T07:22:57;95460.72;;;16.76;42.02
77723;BME280;67811;42.656;23.394;2023-05-02T07:25:22;95465.25;;;17.07;41.64
77723;BME280;67811;42.656;23.394;2023-05-02T07:27:48;95456.50;;;17.25;39.47
77723;BME280;67811;42.656;23.394;2023-05-02T07:30:13;95458.16;;;16.95;40.74
77723;BME280;67811;42.656;23.394;2023-05-02T07:32:38;95460.63;;;16.90;40.31
77723;BME280;67811;42.656;23.394;2023-05-02T07:35:04;95465.44;;;17.44;38.54
77723;BME280;67811;42.656;23.394;2023-05-02T07:37:33;95445.78;;;16.94;39.33
77723;BME280;67811;42.656;23.394;2023-05-02T07:39:58;95450.47;;;17.05;38.78
77723;BME280;67811;42.656;23.394;2023-05-02T07:42:28;95448.66;;;16.99;39.12
77723;BME280;67811;42.656;23.394;2023-05-02T07:44:53;95447.09;;;17.16;39.32
77723;BME280;67811;42.656;23.394;2023-05-02T07:47:18;95477.63;;;17.65;38.49
77723;BME280;67811;42.656;23.394;2023-05-02T07:49:44;95466.13;;;17.33;38.68
77723;BME280;67811;42.656;23.394;2023-05-02T07:52:09;95473.81;;;17.54;39.04
77723;BME280;67811;42.656;23.394;2023-05-02T07:54:34;95457.94;;;18.03;37.55
77723;BME280;67811;42.656;23.394;2023-05-02T07:56:59;95454.50;;;18.14;37.39
77723;BME280;67811;42.656;23.394;2023-05-02T07:59:25;95469.38;;;17.92;37.18
77723;BME280;67811;42.656;23.394;2023-05-02T08:01:50;95459.94;;;18.44;36.97
77723;BME280;67811;42.656;23.394;2023-05-02T08:04:15;95456.97;;;19.01;35.59
77723;BME280;67811;42.656;23.394;2023-05-02T08:06:43;95452.31;;;18.78;35.44
77723;BME280;67811;42.656;23.394;2023-05-02T08:09:08;95461.78;;;17.88;36.26
77723;BME280;67811;42.656;23.394;2023-05-02T08:11:33;95452.75;;;17.83;36.88
77723;BME280;67811;42.656;23.394;2023-05-02T08:13:59;95446.16;;;18.04;36.71
77723;BME280;67811;42.656;23.394;2023-05-02T08:16:24;95439.97;;;18.58;36.26
77723;BME280;67811;42.656;23.394;2023-05-02T08:18:49;95449.56;;;18.66;36.53
77723;BME280;67811;42.656;23.394;2023-05-02T08:21:15;95446.28;;;18.64;35.74
77723;BME280;67811;42.656;23.394;2023-05-02T08:23:40;95442.59;;;18.47;36.71
77723;BME280;67811;42.656;23.394;2023-05-02T08:26:06;95439.72;;;18.78;35.94
77723;BME280;67811;42.656;23.394;2023-05-02T08:28:31;95445.78;;;18.37;35.54
77723;BME280;67811;42.656;23.394;2023-05-02T08:30:56;95446.72;;;18.61;35.71
77723;BME280;67811;42.656;23.394;2023-05-02T08:33:22;95452.59;;;18.88;35.23
77723;BME280;67811;42.656;23.394;2023-05-02T08:35:47;95453.97;;;18.60;35.91
77723;BME280;67811;42.656;23.394;2023-05-02T08:38:12;95462.41;;;18.09;36.34
77723;BME280;67811;42.656;23.394;2023-05-02T08:40:38;95455.25;;;18.39;35.61
77723;BME280;67811;42.656;23.394;2023-05-02T08:43:03;95452.13;;;18.79;34.50
77723;BME280;67811;42.656;23.394;2023-05-02T08:45:33;95446.81;;;18.73;35.76
77723;BME280;67811;42.656;23.394;2023-05-02T08:47:59;95437.25;;;19.48;33.42
77723;BME280;67811;42.656;23.394;2023-05-02T08:50:25;95452.03;;;19.69;33.33
77723;BME280;67811;42.656;23.394;2023-05-02T08:52:50;95453.84;;;19.45;33.45
77723;BME280;67811;42.656;23.394;2023-05-02T08:55:16;95453.97;;;19.09;34.19
77723;BME280;67811;42.656;23.394;2023-05-02T08:57:42;95447.41;;;18.56;35.18
77723;BME280;67811;42.656;23.394;2023-05-02T09:00:08;95447.72;;;18.85;34.87
77723;BME280;67811;42.656;23.394;2023-05-02T09:05:39;95440.56;;;19.97;33.06
77723;BME280;67811;42.656;23.394;2023-05-02T09:08:05;95434.91;;;19.40;32.42
77723;BME280;67811;42.656;23.394;2023-05-02T09:10:33;95429.06;;;20.25;31.96
77723;BME280;67811;42.656;23.394;2023-05-02T09:16:02;95433.22;;;18.19;34.50
77723;BME280;67811;42.656;23.394;2023-05-02T09:18:33;95422.22;;;19.59;33.26
77723;BME280;67811;42.656;23.394;2023-05-02T09:21:00;95423.53;;;19.27;32.34
77723;BME280;67811;42.656;23.394;2023-05-02T09:23:55;95422.78;;;20.08;31.83
77723;BME280;67811;42.656;23.394;2023-05-02T09:26:24;95399.28;;;19.92;30.51
77723;BME280;67811;42.656;23.394;2023-05-02T09:28:52;95419.06;;;19.09;31.94
77723;BME280;67811;42.656;23.394;2023-05-02T09:31:24;95420.22;;;19.66;31.20
77723;BME280;67811;42.656;23.394;2023-05-02T09:33:52;95418.69;;;19.05;31.90
77723;BME280;67811;42.656;23.394;2023-05-02T09:36:19;95408.84;;;19.53;31.01
77723;BME280;67811;42.656;23.394;2023-05-02T09:38:46;95416.69;;;19.54;31.51
77723;BME280;67811;42.656;23.394;2023-05-02T09:41:11;95417.56;;;20.42;30.43
77723;BME280;67811;42.656;23.394;2023-05-02T09:43:37;95412.53;;;19.28;31.99
77723;BME280;67811;42.656;23.394;2023-05-02T09:46:05;95398.69;;;20.13;31.03
77723;BME280;67811;42.656;23.394;2023-05-02T09:48:32;95409.72;;;20.00;31.88
77723;BME280;67811;42.656;23.394;2023-05-02T09:50:57;95405.06;;;20.47;30.34
77723;BME280;67811;42.656;23.394;2023-05-02T09:53:26;95396.84;;;20.02;30.65
77723;BME280;67811;42.656;23.394;2023-05-02T09:56:02;95381.53;;;20.43;30.42
77723;BME280;67811;42.656;23.394;2023-05-02T09:58:28;95383.66;;;20.98;29.53
77723;BME280;67811;42.656;23.394;2023-05-02T10:00:53;95392.38;;;21.17;28.86
77723;BME280;67811;42.656;23.394;2023-05-02T10:03:19;95389.94;;;20.58;29.56
77723;BME280;67811;42.656;23.394;2023-05-02T10:05:46;95385.69;;;21.36;28.42
77723;BME280;67811;42.656;23.394;2023-05-02T10:08:12;95377.38;;;20.92;28.39
77723;BME280;67811;42.656;23.394;2023-05-02T10:10:40;95386.22;;;21.33;28.06
77723;BME280;67811;42.656;23.394;2023-05-02T10:13:07;95388.84;;;21.16;28.13
77723;BME280;67811;42.656;23.394;2023-05-02T10:15:36;95383.31;;;20.77;28.97
77723;BME280;67811;42.656;23.394;2023-05-02T10:18:11;95384.22;;;21.28;28.27
77723;BME280;67811;42.656;23.394;2023-05-02T10:20:51;95387.50;;;21.30;28.34
77723;BME280;67811;42.656;23.394;2023-05-02T10:23:20;95374.03;;;21.30;28.75
77723;BME280;67811;42.656;23.394;2023-05-02T10:25:46;95359.69;;;21.80;27.45
77723;BME280;67811;42.656;23.394;2023-05-02T10:28:11;95377.44;;;21.76;27.01
77723;BME280;67811;42.656;23.394;2023-05-02T10:30:38;95365.63;;;21.99;27.69
77723;BME280;67811;42.656;23.394;2023-05-02T10:33:03;95370.38;;;21.25;28.62
77723;BME280;67811;42.656;23.394;2023-05-02T10:35:29;95368.75;;;21.74;27.35
77723;BME280;67811;42.656;23.394;2023-05-02T10:37:55;95357.41;;;20.76;28.75
77723;BME280;67811;42.656;23.394;2023-05-02T10:40:20;95360.16;;;21.39;28.28
77723;BME280;67811;42.656;23.394;2023-05-02T10:42:46;95361.56;;;20.96;28.19
77723;BME280;67811;42.656;23.394;2023-05-02T10:48:18;95348.19;;;21.18;28.45
77723;BME280;67811;42.656;23.394;2023-05-02T10:50:49;95370.34;;;21.37;28.62
77723;BME280;67811;42.656;23.394;2023-05-02T10:58:41;95353.31;;;21.02;28.61
77723;BME280;67811;42.656;23.394;2023-05-02T11:03:56;95351.09;;;20.42;28.99
77723;BME280;67811;42.656;23.394;2023-05-02T11:06:29;95358.06;;;19.63;30.59
77723;BME280;67811;42.656;23.394;2023-05-02T11:11:43;95351.97;;;19.79;29.69
77723;BME280;67811;42.656;23.394;2023-05-02T11:14:10;95340.72;;;19.82;30.62
77723;BME280;67811;42.656;23.394;2023-05-02T11:19:28;95344.47;;;19.81;30.88
77723;BME280;67811;42.656;23.394;2023-05-02T11:24:46;95330.69;;;20.30;30.15
77723;BME280;67811;42.656;23.394;2023-05-02T11:29:58;95327.28;;;20.34;30.35
77723;BME280;67811;42.656;23.394;2023-05-02T11:32:24;95331.19;;;21.00;29.36
77723;BME280;67811;42.656;23.394;2023-05-02T11:37:39;95325.16;;;20.93;29.30
77723;BME280;67811;42.656;23.394;2023-05-02T11:40:12;95331.81;;;20.74;29.63
77723;BME280;67811;42.656;23.394;2023-05-02T11:42:37;95328.22;;;20.68;30.18
77723;BME280;67811;42.656;23.394;2023-05-02T11:45:03;95324.59;;;20.34;30.59
77723;BME280;67811;42.656;23.394;2023-05-02T11:47:31;95312.25;;;20.50;29.87
77723;BME280;67811;42.656;23.394;2023-05-02T11:49:57;95301.59;;;20.15;30.80
77723;BME280;67811;42.656;23.394;2023-05-02T11:52:22;95303.16;;;20.39;30.95
77723;BME280;67811;42.656;23.394;2023-05-02T11:54:48;95307.97;;;20.25;30.49
77723;BME280;67811;42.656;23.394;2023-05-02T11:57:14;95320.19;;;19.64;31.02
77723;BME280;67811;42.656;23.394;2023-05-02T11:59:52;95313.19;;;20.56;30.31
77723;BME280;67811;42.656;23.394;2023-05-02T12:02:18;95305.81;;;20.51;30.75
77723;BME280;67811;42.656;23.394;2023-05-02T12:04:43;95299.88;;;20.37;31.38
77723;BME280;67811;42.656;23.394;2023-05-02T12:07:09;95295.94;;;19.88;31.44
77723;BME280;67811;42.656;23.394;2023-05-02T12:09:34;95290.00;;;20.14;30.31
77723;BME280;67811;42.656;23.394;2023-05-02T12:12:00;95286.38;;;19.80;31.18
77723;BME280;67811;42.656;23.394;2023-05-02T12:14:28;95285.38;;;20.38;30.36
77723;BME280;67811;42.656;23.394;2023-05-02T12:16:56;95271.91;;;20.38;29.70
77723;BME280;67811;42.656;23.394;2023-05-02T12:19:22;95284.84;;;20.53;29.89
77723;BME280;67811;42.656;23.394;2023-05-02T12:21:47;95276.38;;;20.61;29.66
77723;BME280;67811;42.656;23.394;2023-05-02T12:24:14;95273.97;;;21.10;28.21
77723;BME280;67811;42.656;23.394;2023-05-02T12:26:39;95274.34;;;20.68;28.35
77723;BME280;67811;42.656;23.394;2023-05-02T12:29:04;95266.50;;;20.50;29.16
77723;BME280;67811;42.656;23.394;2023-05-02T12:31:30;95284.31;;;21.01;28.19
77723;BME280;67811;42.656;23.394;2023-05-02T12:33:55;95263.59;;;21.02;28.88
77723;BME280;67811;42.656;23.394;2023-05-02T12:36:20;95269.34;;;20.60;28.51
77723;BME280;67811;42.656;23.394;2023-05-02T12:38:57;95248.16;;;20.64;28.26
77723;BME280;67811;42.656;23.394;2023-05-02T12:41:37;95248.47;;;20.50;28.70
77723;BME280;67811;42.656;23.394;2023-05-02T12:44:03;95260.00;;;20.79;28.79
77723;BME280;67811;42.656;23.394;2023-05-02T12:46:29;95241.38;;;20.61;28.92
77723;BME280;67811;42.656;23.394;2023-05-02T12:49:08;95245.28;;;20.87;28.42
77723;BME280;67811;42.656;23.394;2023-05-02T12:51:34;95238.34;;;20.58;28.81
77723;BME280;67811;42.656;23.394;2023-05-02T12:54:00;95241.25;;;20.39;28.45
77723;BME280;67811;42.656;23.394;2023-05-02T12:56:25;95254.91;;;19.81;29.88
77723;BME280;67811;42.656;23.394;2023-05-02T12:58:50;95244.72;;;20.23;30.08
77723;BME280;67811;42.656;23.394;2023-05-02T13:01:16;95235.03;;;20.10;29.03
77723;BME280;67811;42.656;23.394;2023-05-02T13:03:42;95251.19;;;20.10;28.21
77723;BME280;67811;42.656;23.394;2023-05-02T13:06:07;95245.34;;;20.13;29.35
77723;BME280;67811;42.656;23.394;2023-05-02T13:08:34;95240.06;;;20.18;28.80
77723;BME280;67811;42.656;23.394;2023-05-02T13:11:01;95245.88;;;19.87;29.44
77723;BME280;67811;42.656;23.394;2023-05-02T13:13:26;95236.06;;;20.21;29.31
77723;BME280;67811;42.656;23.394;2023-05-02T13:15:51;95232.63;;;20.25;28.60
77723;BME280;67811;42.656;23.394;2023-05-02T13:18:17;95250.50;;;20.03;28.92
77723;BME280;67811;42.656;23.394;2023-05-02T13:20:42;95253.84;;;20.22;29.07
77723;BME280;67811;42.656;23.394;2023-05-02T13:23:07;95251.88;;;20.17;28.29
77723;BME280;67811;42.656;23.394;2023-05-02T13:25:32;95251.28;;;19.87;28.52
77723;BME280;67811;42.656;23.394;2023-05-02T13:27:58;95241.13;;;20.17;28.84
77723;BME280;67811;42.656;23.394;2023-05-02T13:30:23;95262.44;;;20.36;27.96
77723;BME280;67811;42.656;23.394;2023-05-02T13:32:48;95243.66;;;20.24;28.10
77723;BME280;67811;42.656;23.394;2023-05-02T13:35:13;95239.25;;;20.18;28.41